createdAt,value
2022-10-02T00:00:17.913Z,95975.00
2022-10-02T00:05:52.202Z,95972.00
2022-10-02T00:11:25.757Z,95976.00
2022-10-02T00:16:59.652Z,95980.00
2022-10-02T00:22:34.248Z,95982.00
2022-10-02T00:28:15.897Z,95990.00
2022-10-02T00:34:27.267Z,96003.00
2022-10-02T00:40:37.478Z,96016.00
2022-10-02T00:46:32.608Z,96029.00
2022-10-02T00:52:18.580Z,96033.00
2022-10-02T00:58:09.103Z,96028.00
2022-10-02T01:03:53.388Z,96030.00
2022-10-02T01:09:24.659Z,96011.00
2022-10-02T01:14:52.827Z,96007.00
2022-10-02T01:20:25.047Z,96018.00
2022-10-02T01:25:53.196Z,96020.00
2022-10-02T01:31:21.963Z,96042.00
2022-10-02T01:36:50.350Z,96046.00
2022-10-02T01:42:18.601Z,96043.00
2022-10-02T01:48:01.980Z,96043.00
2022-10-02T01:53:45.349Z,96024.00
2022-10-02T01:59:32.896Z,96010.00
2022-10-02T02:05:24.826Z,96007.00
2022-10-02T02:11:02.119Z,96004.00
2022-10-02T02:16:47.448Z,96030.00
2022-10-02T02:22:29.104Z,96027.00
2022-10-02T02:28:06.884Z,96036.00
2022-10-02T02:33:48.237Z,96028.00
2022-10-02T02:39:27.070Z,96037.00
2022-10-02T02:45:20.349Z,96040.00
2022-10-02T02:51:17.511Z,96040.00
2022-10-02T02:56:48.506Z,96034.00
2022-10-02T03:02:16.709Z,96029.00
2022-10-02T03:07:55.074Z,96023.00
2022-10-02T03:13:47.915Z,96035.00
2022-10-02T03:19:41.118Z,96046.00
2022-10-02T03:25:32.136Z,96042.00
2022-10-02T03:31:01.081Z,96037.00
2022-10-02T03:36:29.002Z,96026.00
2022-10-02T03:41:56.928Z,96037.00
2022-10-02T03:47:24.764Z,96039.00
2022-10-02T03:52:53.828Z,96017.00
2022-10-02T03:58:22.410Z,96017.00
2022-10-02T04:03:57.502Z,96009.00
2022-10-02T04:09:33.698Z,96020.00
2022-10-02T04:15:15.085Z,96011.00
2022-10-02T04:20:55.727Z,96015.00
2022-10-02T04:26:34.371Z,96018.00
2022-10-02T04:32:14.891Z,96022.00
2022-10-02T04:38:16.607Z,96021.00
2022-10-02T04:44:30.798Z,96019.00
2022-10-02T04:50:38.319Z,96018.00
2022-10-02T04:56:18.259Z,96018.00
2022-10-02T05:02:10.269Z,96017.00
2022-10-02T05:07:49.624Z,95995.00
2022-10-02T05:13:42.571Z,96001.00
2022-10-02T05:19:53.282Z,96018.00
2022-10-02T05:25:35.688Z,96026.00
2022-10-02T05:31:21.621Z,96020.00
2022-10-02T05:36:59.217Z,96018.00
2022-10-02T05:42:41.110Z,96006.00
2022-10-02T05:48:30.767Z,96024.00
2022-10-02T05:54:06.166Z,96017.00
2022-10-02T05:59:48.903Z,96009.00
2022-10-02T06:05:30.189Z,96017.00
2022-10-02T06:11:07.367Z,96036.00
2022-10-02T06:16:43.847Z,96030.00
2022-10-02T06:22:19.719Z,96039.00
2022-10-02T06:27:55.499Z,96052.00
2022-10-02T06:33:26.348Z,96057.00
2022-10-02T06:39:18.859Z,96046.00
2022-10-02T06:45:12.910Z,96048.00
2022-10-02T06:51:17.186Z,96043.00
2022-10-02T06:57:08.384Z,96046.00
2022-10-02T07:03:18.915Z,96051.00
2022-10-02T07:09:01.670Z,96057.00
2022-10-02T07:15:22.161Z,96060.00
2022-10-02T07:21:01.798Z,96049.00
2022-10-02T07:27:12.610Z,96050.00
2022-10-02T07:33:04.792Z,96051.00
2022-10-02T07:38:55.117Z,96058.00
2022-10-02T07:45:02.298Z,96052.00
2022-10-02T07:50:54.805Z,96054.00
2022-10-02T07:56:23.557Z,96047.00
2022-10-02T08:01:52.595Z,96037.00
2022-10-02T08:07:20.851Z,96036.00
2022-10-02T08:13:00.819Z,96041.00
2022-10-02T08:18:38.149Z,96027.00
2022-10-02T08:24:25.187Z,96031.00
2022-10-02T08:30:03.109Z,96017.00
2022-10-02T08:35:59.696Z,96025.00
2022-10-02T08:42:33.966Z,96022.00
2022-10-02T08:48:56.027Z,96015.00
2022-10-02T08:54:58.760Z,96015.00
2022-10-02T09:00:45.206Z,96001.00
2022-10-02T09:06:43.225Z,95994.00
2022-10-02T09:12:42.665Z,95988.00
2022-10-02T09:19:01.683Z,95965.00
2022-10-02T09:25:08.741Z,95964.00
2022-10-02T09:30:57.622Z,95966.00
2022-10-02T09:36:51.258Z,95955.00
2022-10-02T09:42:53.790Z,95940.00
2022-10-02T09:48:45.318Z,95929.00
2022-10-02T09:55:00.155Z,95922.00
2022-10-02T10:00:31.245Z,95917.00
2022-10-02T10:06:26.004Z,95907.00
2022-10-02T10:12:12.331Z,95901.00
2022-10-02T10:18:20.992Z,95905.00
2022-10-02T10:24:23.328Z,95904.00
2022-10-02T10:30:27.614Z,95897.00
2022-10-02T10:36:05.691Z,95878.00
2022-10-02T10:42:27.777Z,95873.00
2022-10-02T10:48:23.303Z,95876.00
2022-10-02T10:54:22.856Z,95873.00
2022-10-02T10:59:53.052Z,95867.00
2022-10-02T11:05:55.479Z,95855.00
2022-10-02T11:11:58.212Z,95841.00
2022-10-02T11:17:48.391Z,95843.00
2022-10-02T11:23:41.634Z,95849.00
2022-10-02T11:29:51.099Z,95848.00
2022-10-02T11:35:28.033Z,95830.00
2022-10-02T11:41:09.111Z,95813.00
2022-10-02T11:47:07.663Z,95807.00
2022-10-02T11:53:05.052Z,95793.00
2022-10-02T11:58:54.596Z,95785.00
2022-10-02T12:05:18.398Z,95792.00
2022-10-02T12:11:10.884Z,95786.00
2022-10-02T12:17:16.830Z,95777.00
2022-10-02T12:23:58.311Z,95767.00
2022-10-02T12:30:01.457Z,95760.00
2022-10-02T12:36:01.479Z,95746.00
2022-10-02T12:41:55.378Z,95736.00
2022-10-02T12:48:00.689Z,95725.00
2022-10-02T12:54:09.670Z,95751.00
2022-10-02T13:00:02.220Z,95739.00
2022-10-02T13:06:13.312Z,95727.00
2022-10-02T13:12:01.920Z,95731.00
2022-10-02T13:17:56.268Z,95722.00
2022-10-02T13:23:45.985Z,95717.00
2022-10-02T13:29:54.968Z,95792.00
2022-10-02T13:35:57.190Z,95778.00
2022-10-02T13:42:00.005Z,95759.00
2022-10-02T13:48:13.758Z,95812.00
2022-10-02T13:54:24.963Z,95846.00
2022-10-02T14:00:23.695Z,95849.00
2022-10-02T14:06:33.450Z,95853.00
2022-10-02T14:12:29.313Z,95871.00
2022-10-02T14:18:14.863Z,95872.00
2022-10-02T14:24:50.893Z,95880.00
2022-10-02T14:30:46.519Z,95867.00
2022-10-02T14:36:30.949Z,95855.00
2022-10-02T14:43:00.212Z,95855.00
2022-10-02T14:48:46.235Z,95868.00
2022-10-02T14:55:10.384Z,95902.00
2022-10-02T15:01:02.306Z,95851.00
2022-10-02T15:06:51.243Z,95855.00
2022-10-02T15:12:25.492Z,95863.00
2022-10-02T15:18:17.438Z,95855.00
2022-10-02T15:23:51.749Z,95883.00
2022-10-02T15:29:54.549Z,95870.00
2022-10-02T15:36:09.734Z,95877.00
2022-10-02T15:41:42.396Z,95878.00
2022-10-02T15:47:49.287Z,95887.00
2022-10-02T15:53:32.805Z,95890.00
2022-10-02T15:59:21.628Z,95894.00
2022-10-02T16:05:35.356Z,95908.00
2022-10-02T16:11:38.361Z,95925.00
2022-10-02T16:17:14.479Z,95947.00
2022-10-02T16:23:02.904Z,95947.00
2022-10-02T16:29:05.934Z,95948.00
2022-10-02T16:35:11.274Z,95930.00
2022-10-02T16:41:09.673Z,95950.00
2022-10-02T16:46:55.733Z,95942.00
2022-10-02T16:52:47.502Z,95947.00
2022-10-02T16:58:31.195Z,95941.00
2022-10-02T17:04:41.561Z,95947.00
2022-10-02T17:10:37.591Z,95940.00
2022-10-02T17:16:11.205Z,95948.00
2022-10-02T17:21:46.288Z,95940.00
2022-10-02T17:27:33.557Z,95967.00
2022-10-02T17:33:11.696Z,95978.00
2022-10-02T17:39:34.091Z,95997.00
2022-10-02T17:45:26.663Z,95999.00
2022-10-02T17:57:59.039Z,96024.00
2022-10-02T18:03:41.399Z,96034.00
2022-10-02T18:09:44.575Z,96054.00
2022-10-02T18:15:42.786Z,96054.00
2022-10-02T18:21:40.958Z,96064.00
2022-10-02T18:27:30.363Z,96067.00
2022-10-02T18:33:25.263Z,96077.00
2022-10-02T18:38:55.600Z,96084.00
2022-10-02T18:45:07.141Z,96078.00
2022-10-02T18:50:48.206Z,96040.00
2022-10-02T18:56:40.588Z,96051.00
2022-10-02T19:03:26.986Z,96064.00
2022-10-02T19:09:09.840Z,96058.00
2022-10-02T19:14:46.130Z,96059.00
2022-10-02T19:20:45.877Z,96067.00
2022-10-02T19:26:41.305Z,96080.00
2022-10-02T19:32:42.544Z,96094.00
2022-10-02T19:38:36.215Z,96101.00
2022-10-02T19:44:42.215Z,96093.00
2022-10-02T19:50:28.120Z,96109.00
2022-10-02T19:56:05.906Z,96100.00
2022-10-02T20:01:55.910Z,96100.00
2022-10-02T20:07:36.533Z,96104.00
2022-10-02T20:13:28.216Z,96111.00
2022-10-02T20:18:56.651Z,96140.00
2022-10-02T20:24:36.105Z,96149.00
2022-10-02T20:30:12.968Z,96154.00
2022-10-02T20:35:47.136Z,96128.00
2022-10-02T20:41:27.424Z,96124.00
2022-10-02T20:47:33.345Z,96139.00
2022-10-02T20:53:28.855Z,96159.00
2022-10-02T20:59:52.482Z,96164.00
2022-10-02T21:05:45.215Z,96179.00
2022-10-02T21:11:50.769Z,96169.00
2022-10-02T21:17:58.584Z,96184.00
2022-10-02T21:24:15.031Z,96195.00
2022-10-02T21:30:11.837Z,96193.00
2022-10-02T21:36:09.934Z,96200.00
2022-10-02T21:42:35.206Z,96198.00
2022-10-02T21:48:34.496Z,96214.00
2022-10-02T21:54:39.309Z,96233.00
2022-10-02T22:00:24.471Z,96222.00
2022-10-02T22:06:25.894Z,96233.00
2022-10-02T22:12:04.545Z,96244.00
2022-10-02T22:18:14.167Z,96244.00
2022-10-02T22:24:22.298Z,96255.00
2022-10-02T22:29:54.181Z,96258.00
2022-10-02T22:35:44.932Z,96259.00
2022-10-02T22:41:38.520Z,96267.00
2022-10-02T22:47:35.149Z,96264.00
2022-10-02T22:53:31.196Z,96274.00
2022-10-02T22:59:16.858Z,96281.00
2022-10-02T23:04:50.590Z,96283.00
2022-10-02T23:10:46.777Z,96292.00
2022-10-02T23:16:52.140Z,96302.00
2022-10-02T23:22:40.919Z,96301.00
2022-10-02T23:28:27.118Z,96301.00
2022-10-02T23:34:41.566Z,96302.00
2022-10-02T23:40:47.918Z,96315.00
2022-10-02T23:46:27.337Z,96319.00
2022-10-02T23:52:53.106Z,96314.00
2022-10-02T23:59:06.888Z,96320.00
